createdAt,value
2018-02-13T00:00:00.499Z,0.23
2018-02-13T00:01:09.324Z,0.15
2018-02-13T00:02:18.153Z,0.17
2018-02-13T00:03:26.979Z,0.23
2018-02-13T00:04:35.955Z,0.21
2018-02-13T00:05:44.780Z,0.17
2018-02-13T00:06:53.605Z,0.1
2018-02-13T00:08:02.436Z,0.15
2018-02-13T00:09:11.258Z,0.11
2018-02-13T00:10:20.233Z,0.08
2018-02-13T00:11:29.069Z,0.15
2018-02-13T00:12:37.884Z,0.14
2018-02-13T00:13:46.982Z,0.15
2018-02-13T00:14:55.818Z,0.15
2018-02-13T00:16:04.633Z,0.08
2018-02-13T00:17:13.458Z,0.11
2018-02-13T00:18:22.281Z,0.04
2018-02-13T00:19:31.107Z,0.15
2018-02-13T00:20:39.931Z,0.08
2018-02-13T00:21:48.905Z,0.14
2018-02-13T00:22:57.731Z,0.13
2018-02-13T00:24:06.560Z,0.07
2018-02-13T00:25:15.632Z,0.08
2018-02-13T00:26:24.453Z,-0.01
2018-02-13T00:27:33.882Z,0.02
2018-02-13T00:28:42.703Z,0.02
2018-02-13T00:29:51.800Z,0.03
2018-02-13T00:31:00.624Z,0.07
2018-02-13T00:32:09.448Z,0.02
2018-02-13T00:33:18.424Z,0
2018-02-13T00:34:27.247Z,-0.01
2018-02-13T00:35:36.073Z,0
2018-02-13T00:36:44.895Z,0.08
2018-02-13T00:37:53.720Z,0.02
2018-02-13T00:39:02.644Z,-0.01
2018-02-13T00:40:11.470Z,0.11
2018-02-13T00:41:20.292Z,0.1
2018-02-13T00:42:29.117Z,0.08
2018-02-13T00:43:37.943Z,0.15
2018-02-13T00:44:46.768Z,0.14
2018-02-13T00:45:55.597Z,-0.01
2018-02-13T00:47:04.417Z,0.07
2018-02-13T00:48:13.239Z,0.04
2018-02-13T00:49:22.340Z,0.1
2018-02-13T00:50:31.169Z,0
2018-02-13T00:51:39.992Z,0.04
2018-02-13T00:52:48.813Z,-0.03
2018-02-13T00:53:57.910Z,0
2018-02-13T00:55:06.736Z,0.04
2018-02-13T00:56:15.562Z,-0.08
2018-02-13T00:57:24.386Z,0.03
2018-02-13T00:58:33.212Z,-0.08
2018-02-13T00:59:42.038Z,0
2018-02-13T01:00:51.174Z,0.02
2018-02-13T01:01:59.961Z,-0.14
2018-02-13T01:03:08.787Z,0.02
2018-02-13T01:04:17.659Z,0.04
2018-02-13T01:05:26.436Z,0.03
2018-02-13T01:06:35.260Z,-0.01
2018-02-13T01:07:44.085Z,0.02
2018-02-13T01:08:52.909Z,-0.08
2018-02-13T01:10:01.736Z,-0.01
2018-02-13T01:11:10.839Z,0
2018-02-13T01:12:19.661Z,-0.05
2018-02-13T01:13:28.934Z,0.03
2018-02-13T01:14:38.030Z,-0.01
2018-02-13T01:15:46.854Z,0.04
2018-02-13T01:16:55.678Z,-0.14
2018-02-13T01:18:04.779Z,-0.05
2018-02-13T01:19:13.852Z,-0.07
2018-02-13T01:20:22.677Z,-0.05
2018-02-13T01:21:31.501Z,-0.08
2018-02-13T01:22:40.600Z,-0.1
2018-02-13T01:23:49.422Z,-0.03
2018-02-13T01:24:58.348Z,0.03
2018-02-13T01:26:07.444Z,0.02
2018-02-13T01:27:16.268Z,-0.07
2018-02-13T01:28:25.370Z,-0.04
2018-02-13T01:29:34.196Z,-0.04
2018-02-13T01:30:43.018Z,-0.14
2018-02-13T01:31:51.845Z,-0.08
2018-02-13T01:33:00.947Z,-0.14
2018-02-13T01:34:09.772Z,-0.1
2018-02-13T01:35:18.595Z,-0.15
2018-02-13T01:36:27.470Z,-0.15
2018-02-13T01:37:36.291Z,-0.16
2018-02-13T01:38:45.112Z,-0.07
2018-02-13T01:39:53.936Z,-0.1
2018-02-13T01:41:02.761Z,-0.15
2018-02-13T01:42:11.686Z,-0.22
2018-02-13T01:43:20.517Z,-0.11
2018-02-13T01:44:29.612Z,-0.18
2018-02-13T01:45:38.437Z,-0.1
2018-02-13T01:46:47.261Z,-0.1
2018-02-13T01:47:56.469Z,-0.15
2018-02-13T01:49:05.294Z,-0.18
2018-02-13T01:50:14.117Z,-0.08
2018-02-13T01:51:22.937Z,-0.22
2018-02-13T01:52:31.761Z,-0.14
2018-02-13T01:53:40.736Z,-0.11
2018-02-13T01:54:49.557Z,-0.15
2018-02-13T01:55:58.383Z,-0.18
2018-02-13T01:57:07.206Z,-0.1
2018-02-13T01:58:16.306Z,-0.15
2018-02-13T01:59:25.281Z,-0.16
2018-02-13T02:00:34.103Z,-0.15
2018-02-13T02:01:42.929Z,-0.14
2018-02-13T02:02:51.752Z,-0.16
2018-02-13T02:04:00.575Z,-0.15
2018-02-13T02:05:09.550Z,-0.18
2018-02-13T02:06:18.374Z,-0.23
2018-02-13T02:07:27.198Z,-0.08
2018-02-13T02:08:36.023Z,-0.1
2018-02-13T02:09:44.850Z,-0.19
2018-02-13T02:10:53.775Z,-0.19
2018-02-13T02:12:02.870Z,-0.19
2018-02-13T02:13:11.965Z,-0.16
2018-02-13T02:14:20.792Z,-0.19
2018-02-13T02:15:29.613Z,-0.26
2018-02-13T02:16:38.439Z,-0.28
2018-02-13T02:17:47.262Z,-0.25
2018-02-13T02:18:56.087Z,-0.28
2018-02-13T02:20:04.915Z,-0.26
2018-02-13T02:21:14.011Z,-0.25
2018-02-13T02:22:23.135Z,-0.22
2018-02-13T02:23:31.959Z,-0.23
2018-02-13T02:24:40.781Z,-0.22
2018-02-13T02:25:49.604Z,-0.22
2018-02-13T02:26:58.432Z,-0.21
2018-02-13T02:28:07.406Z,-0.25
2018-02-13T02:29:16.231Z,-0.26
2018-02-13T02:30:25.055Z,-0.25
2018-02-13T02:31:33.880Z,-0.28
2018-02-13T02:32:42.704Z,-0.23
2018-02-13T02:33:51.577Z,-0.29
2018-02-13T02:35:00.402Z,-0.33
2018-02-13T02:36:09.224Z,-0.4
2018-02-13T02:37:18.049Z,-0.37
2018-02-13T02:38:26.874Z,-0.26
2018-02-13T02:39:35.799Z,-0.34
2018-02-13T02:40:44.898Z,-0.33
2018-02-13T02:41:53.725Z,-0.39
2018-02-13T02:43:02.549Z,-0.42
2018-02-13T02:44:11.373Z,-0.36
2018-02-13T02:45:20.297Z,-0.39
2018-02-13T02:46:29.397Z,-0.39
2018-02-13T02:47:38.222Z,-0.4
2018-02-13T02:48:47.317Z,-0.4
2018-02-13T02:49:56.142Z,-0.37
2018-02-13T02:51:05.295Z,-0.39
2018-02-13T02:52:14.397Z,-0.44
2018-02-13T02:53:23.219Z,-0.43
2018-02-13T02:54:32.042Z,-0.33
2018-02-13T02:55:40.868Z,-0.49
2018-02-13T02:56:49.990Z,-0.46
2018-02-13T02:57:58.814Z,-0.43
2018-02-13T02:59:07.639Z,-0.44
2018-02-13T03:00:16.461Z,-0.49
2018-02-13T03:01:25.290Z,-0.49
2018-02-13T03:02:34.413Z,-0.49
2018-02-13T03:03:43.235Z,-0.47
2018-02-13T03:04:52.335Z,-0.42
2018-02-13T03:06:01.157Z,-0.54
2018-02-13T03:07:09.981Z,-0.51
2018-02-13T03:08:18.905Z,-0.43
2018-02-13T03:09:27.729Z,-0.47
2018-02-13T03:10:36.553Z,-0.43
2018-02-13T03:11:45.376Z,-0.49
2018-02-13T03:12:54.200Z,-0.39
2018-02-13T03:14:03.324Z,-0.44
2018-02-13T03:15:12.147Z,-0.64
2018-02-13T03:16:20.972Z,-0.57
2018-02-13T03:17:29.795Z,-0.62
2018-02-13T03:18:38.621Z,-0.65
2018-02-13T03:19:47.445Z,-0.57
2018-02-13T03:20:56.267Z,-0.61
2018-02-13T03:22:05.092Z,-0.58
2018-02-13T03:23:13.917Z,-0.54
2018-02-13T03:24:22.741Z,-0.65
2018-02-13T03:25:31.616Z,-0.67
2018-02-13T03:26:40.441Z,-0.54
2018-02-13T03:27:49.264Z,-0.6
2018-02-13T03:28:58.087Z,-0.62
2018-02-13T03:30:06.962Z,-0.64
2018-02-13T03:31:15.938Z,-0.58
2018-02-13T03:32:24.763Z,-0.6
2018-02-13T03:33:33.585Z,-0.6
2018-02-13T03:34:42.409Z,-0.6
2018-02-13T03:35:51.233Z,-0.52
2018-02-13T03:37:00.057Z,-0.69
2018-02-13T03:38:09.153Z,-0.69
2018-02-13T03:39:17.979Z,-0.67
2018-02-13T03:40:26.804Z,-0.67
2018-02-13T03:41:35.623Z,-0.7
2018-02-13T03:42:44.449Z,-0.69
2018-02-13T03:43:53.272Z,-0.69
2018-02-13T03:45:02.097Z,-0.67
2018-02-13T03:46:10.920Z,-0.65
2018-02-13T03:47:19.744Z,-0.67
2018-02-13T03:48:28.567Z,-0.62
2018-02-13T03:49:37.394Z,-0.67
2018-02-13T03:50:46.218Z,-0.65
2018-02-13T03:51:55.042Z,-0.64
2018-02-13T03:53:03.879Z,-0.61
2018-02-13T03:54:13.179Z,-0.69
2018-02-13T03:55:22.002Z,-0.62
2018-02-13T03:56:30.826Z,-0.64
2018-02-13T03:57:39.656Z,-0.67
2018-02-13T03:58:48.477Z,-0.7
2018-02-13T03:59:57.400Z,-0.67
2018-02-13T04:01:06.226Z,-0.65
2018-02-13T04:02:15.047Z,-0.67
2018-02-13T04:03:23.872Z,-0.67
2018-02-13T04:04:32.701Z,-0.7
2018-02-13T04:05:41.922Z,-0.67
2018-02-13T04:06:50.746Z,-0.64
2018-02-13T04:07:59.568Z,-0.69
2018-02-13T04:09:08.390Z,-0.72
2018-02-13T04:10:17.215Z,-0.73
2018-02-13T04:11:26.188Z,-0.65
2018-02-13T04:12:35.011Z,-0.76
2018-02-13T04:13:43.835Z,-0.65
2018-02-13T04:14:52.658Z,-0.65
2018-02-13T04:16:01.486Z,-0.76
2018-02-13T04:17:10.307Z,-0.67
2018-02-13T04:18:19.403Z,-0.62
2018-02-13T04:19:28.509Z,-0.64
2018-02-13T04:20:37.332Z,-0.64
2018-02-13T04:21:46.158Z,-0.62
2018-02-13T04:22:55.403Z,-0.7
2018-02-13T04:24:04.227Z,-0.67
2018-02-13T04:25:13.053Z,-0.72
2018-02-13T04:26:22.149Z,-0.62
2018-02-13T04:27:30.974Z,-0.61
2018-02-13T04:28:39.799Z,-0.55
2018-02-13T04:29:48.625Z,-0.61
2018-02-13T04:30:57.445Z,-0.62
2018-02-13T04:32:06.547Z,-0.6
2018-02-13T04:33:15.371Z,-0.58
2018-02-13T04:34:24.194Z,-0.65
2018-02-13T04:35:33.016Z,-0.67
2018-02-13T04:36:41.844Z,-0.69
2018-02-13T04:37:50.667Z,-0.64
2018-02-13T04:38:59.491Z,-0.67
2018-02-13T04:40:08.466Z,-0.7
2018-02-13T04:41:17.289Z,-0.55
2018-02-13T04:42:26.113Z,-0.57
2018-02-13T04:43:34.933Z,-0.64
2018-02-13T04:44:43.756Z,-0.65
2018-02-13T04:45:52.579Z,-0.52
2018-02-13T04:47:01.402Z,-0.61
2018-02-13T04:48:10.225Z,-0.61
2018-02-13T04:49:19.051Z,-0.7
2018-02-13T04:50:27.874Z,-0.69
2018-02-13T04:51:36.798Z,-0.64
2018-02-13T04:52:45.619Z,-0.65
2018-02-13T04:53:54.442Z,-0.67
2018-02-13T04:55:03.269Z,-0.75
2018-02-13T04:56:12.089Z,-0.78
2018-02-13T04:57:21.014Z,-0.72
2018-02-13T04:58:29.836Z,-0.8
2018-02-13T04:59:38.665Z,-0.65
2018-02-13T05:00:47.493Z,-0.76
2018-02-13T05:01:56.317Z,-0.83
2018-02-13T05:03:05.291Z,-0.76
2018-02-13T05:04:14.115Z,-0.72
2018-02-13T05:05:23.220Z,-0.67
2018-02-13T05:06:32.317Z,-0.83
2018-02-13T05:07:41.140Z,-0.72
2018-02-13T05:08:50.115Z,-0.82
2018-02-13T05:09:58.937Z,-0.82
2018-02-13T05:11:07.767Z,-0.85
2018-02-13T05:12:16.584Z,-0.75
2018-02-13T05:13:25.738Z,-0.79
2018-02-13T05:14:34.710Z,-0.8
2018-02-13T05:15:43.539Z,-0.83
2018-02-13T05:16:52.360Z,-0.78
2018-02-13T05:18:01.188Z,-0.75
2018-02-13T05:19:10.012Z,-0.72
2018-02-13T05:20:18.985Z,-0.78
2018-02-13T05:21:28.082Z,-0.67
2018-02-13T05:22:37.181Z,-0.8
2018-02-13T05:23:46.005Z,-0.76
2018-02-13T05:24:54.827Z,-0.72
2018-02-13T05:26:03.852Z,-0.69
2018-02-13T05:27:12.676Z,-0.62
2018-02-13T05:28:21.499Z,-0.79
2018-02-13T05:29:30.325Z,-0.75
2018-02-13T05:30:39.150Z,-0.82
2018-02-13T05:31:47.974Z,-0.72
2018-02-13T05:32:56.794Z,-0.75
2018-02-13T05:34:05.620Z,-0.75
2018-02-13T05:35:14.445Z,-0.78
2018-02-13T05:36:23.269Z,-0.79
2018-02-13T05:37:32.394Z,-0.79
2018-02-13T05:38:41.215Z,-0.78
2018-02-13T05:39:50.038Z,-0.82
2018-02-13T05:40:59.134Z,-0.8
2018-02-13T05:42:07.957Z,-0.78
2018-02-13T05:43:16.779Z,-0.82
2018-02-13T05:44:25.602Z,-0.83
2018-02-13T05:45:34.426Z,-0.79
2018-02-13T05:46:43.249Z,-0.8
2018-02-13T05:47:52.071Z,-0.79
2018-02-13T05:49:01.046Z,-0.83
2018-02-13T05:50:09.868Z,-0.8
2018-02-13T05:51:18.690Z,-0.85
2018-02-13T05:52:27.512Z,-0.8
2018-02-13T05:53:36.336Z,-0.86
2018-02-13T05:54:45.163Z,-0.8
2018-02-13T05:55:54.257Z,-0.83
2018-02-13T05:57:03.357Z,-0.79
2018-02-13T05:58:12.181Z,-0.76
2018-02-13T05:59:21.288Z,-0.69
2018-02-13T06:00:30.271Z,-0.8
2018-02-13T06:01:39.090Z,-0.8
2018-02-13T06:02:47.917Z,-0.85
2018-02-13T06:03:56.739Z,-0.85
2018-02-13T06:05:05.841Z,-0.75
2018-02-13T06:06:14.764Z,-0.79
2018-02-13T06:07:23.588Z,-0.82
2018-02-13T06:08:32.412Z,-0.72
2018-02-13T06:09:41.232Z,-0.83
2018-02-13T06:10:50.057Z,-0.82
2018-02-13T06:11:59.256Z,-0.89
2018-02-13T06:13:08.129Z,-0.75
2018-02-13T06:14:16.952Z,-0.78
2018-02-13T06:15:25.772Z,-0.73
2018-02-13T06:16:34.596Z,-0.7
2018-02-13T06:17:43.571Z,-0.75
2018-02-13T06:18:52.393Z,-0.72
2018-02-13T06:20:01.219Z,-0.8
2018-02-13T06:21:10.314Z,-0.85
2018-02-13T06:22:19.139Z,-0.79
2018-02-13T06:23:28.063Z,-0.83
2018-02-13T06:24:36.885Z,-0.83
2018-02-13T06:25:45.711Z,-0.78
2018-02-13T06:26:54.810Z,-0.8
2018-02-13T06:28:03.683Z,-0.82
2018-02-13T06:29:12.507Z,-0.83
2018-02-13T06:30:21.331Z,-0.82
2018-02-13T06:31:30.154Z,-0.85
2018-02-13T06:32:38.980Z,-0.85
2018-02-13T06:33:47.802Z,-0.8
2018-02-13T06:34:56.903Z,-0.83
2018-02-13T06:36:05.724Z,-0.8
2018-02-13T06:37:14.551Z,-0.83
2018-02-13T06:38:23.374Z,-0.73
2018-02-13T06:39:32.200Z,-0.75
2018-02-13T06:40:41.030Z,-0.75
2018-02-13T06:41:49.845Z,-0.86
2018-02-13T06:42:58.672Z,-0.95
2018-02-13T06:44:07.491Z,-0.82
2018-02-13T06:45:16.315Z,-0.82
2018-02-13T06:46:25.140Z,-0.92
2018-02-13T06:47:33.963Z,-0.98
2018-02-13T06:48:42.787Z,-0.91
2018-02-13T06:49:51.612Z,-0.83
2018-02-13T06:51:00.709Z,-0.82
2018-02-13T06:52:09.530Z,-0.83
2018-02-13T06:53:18.354Z,-0.82
2018-02-13T06:54:27.177Z,-0.82
2018-02-13T06:55:36.003Z,-0.82
2018-02-13T06:56:44.825Z,-0.92
2018-02-13T06:57:53.646Z,-0.79
2018-02-13T06:59:02.471Z,-0.83
2018-02-13T07:00:11.394Z,-0.97
2018-02-13T07:01:20.217Z,-0.95
2018-02-13T07:02:29.040Z,-0.83
2018-02-13T07:03:37.864Z,-1.01
2018-02-13T07:04:46.962Z,-0.99
2018-02-13T07:05:55.785Z,-0.85
2018-02-13T07:07:04.611Z,-0.83
2018-02-13T07:08:13.434Z,-0.85
2018-02-13T07:09:22.258Z,-0.83
2018-02-13T07:10:31.080Z,-0.8
2018-02-13T07:11:39.903Z,-0.8
2018-02-13T07:12:48.727Z,-0.8
2018-02-13T07:13:57.549Z,-0.82
2018-02-13T07:15:06.375Z,-0.82
2018-02-13T07:16:15.199Z,-0.82
2018-02-13T07:17:24.125Z,-0.83
2018-02-13T07:18:32.949Z,-0.86
2018-02-13T07:19:41.771Z,-0.86
2018-02-13T07:20:50.872Z,-0.72
2018-02-13T07:21:59.695Z,-0.78
2018-02-13T07:23:08.621Z,-0.82
2018-02-13T07:24:17.451Z,-0.78
2018-02-13T07:25:26.274Z,-0.8
2018-02-13T07:26:35.098Z,-0.76
2018-02-13T07:27:44.192Z,-0.76
2018-02-13T07:28:53.391Z,-0.61
2018-02-13T07:30:02.216Z,-0.65
2018-02-13T07:31:11.042Z,-0.61
2018-02-13T07:32:19.865Z,-0.67
2018-02-13T07:33:28.689Z,-0.69
2018-02-13T07:34:37.712Z,-0.67
2018-02-13T07:35:46.536Z,-0.67
2018-02-13T07:36:55.357Z,-0.7
2018-02-13T07:38:04.180Z,-0.6
2018-02-13T07:39:13.004Z,-0.57
2018-02-13T07:40:21.974Z,-0.54
2018-02-13T07:41:30.799Z,-0.44
2018-02-13T07:42:39.648Z,-0.57
2018-02-13T07:43:48.443Z,-0.46
2018-02-13T07:44:57.273Z,-0.49
2018-02-13T07:46:06.544Z,-0.43
2018-02-13T07:47:15.645Z,-0.43
2018-02-13T07:48:24.467Z,-0.4
2018-02-13T07:49:33.296Z,-0.39
2018-02-13T07:50:42.119Z,-0.36
2018-02-13T07:51:50.941Z,-0.36
2018-02-13T07:53:00.043Z,-0.34
2018-02-13T07:54:08.864Z,-0.26
2018-02-13T07:55:17.689Z,-0.25
2018-02-13T07:56:26.511Z,-0.25
2018-02-13T07:57:35.638Z,-0.22
2018-02-13T07:58:44.468Z,-0.26
2018-02-13T07:59:53.562Z,-0.19
2018-02-13T08:01:02.388Z,-0.19
2018-02-13T08:02:11.211Z,-0.16
2018-02-13T08:03:20.035Z,-0.19
2018-02-13T08:04:28.858Z,-0.15
2018-02-13T08:05:37.692Z,-0.07
2018-02-13T08:06:46.505Z,-0.14
2018-02-13T08:07:55.331Z,-0.07
2018-02-13T08:09:04.256Z,0.04
2018-02-13T08:10:13.083Z,0.1
2018-02-13T08:11:21.905Z,-0.03
2018-02-13T08:12:30.730Z,0.02
2018-02-13T08:13:39.553Z,0
2018-02-13T08:14:48.377Z,-0.04
2018-02-13T08:15:57.201Z,0
2018-02-13T08:17:06.025Z,0.03
2018-02-13T08:18:14.849Z,0.02
2018-02-13T08:19:23.673Z,0.02
2018-02-13T08:20:32.596Z,-0.07
2018-02-13T08:21:41.424Z,0.04
2018-02-13T08:22:50.247Z,0.08
2018-02-13T08:23:59.075Z,0.08
2018-02-13T08:25:07.900Z,0.13
2018-02-13T08:26:16.875Z,0.08
2018-02-13T08:27:25.975Z,0.11
2018-02-13T08:28:34.799Z,0.17
2018-02-13T08:29:43.622Z,0.28
2018-02-13T08:30:52.444Z,0.23
2018-02-13T08:32:01.689Z,0.33
2018-02-13T08:33:10.793Z,0.29
2018-02-13T08:34:19.621Z,0.33
2018-02-13T08:35:28.444Z,0.28
2018-02-13T08:36:37.322Z,0.44
2018-02-13T08:37:46.399Z,0.39
2018-02-13T08:38:55.224Z,0.51
2018-02-13T08:40:04.049Z,0.38
2018-02-13T08:41:12.874Z,0.39
2018-02-13T08:42:21.973Z,0.44
2018-02-13T08:43:30.949Z,0.41
2018-02-13T08:44:39.774Z,0.42
2018-02-13T08:45:48.604Z,0.44
2018-02-13T08:46:57.701Z,0.44
2018-02-13T08:48:06.527Z,0.46
2018-02-13T08:49:15.403Z,0.55
2018-02-13T08:50:24.506Z,0.61
2018-02-13T08:51:33.331Z,0.53
2018-02-13T08:52:42.155Z,0.61
2018-02-13T08:53:50.982Z,0.68
2018-02-13T08:54:59.907Z,0.69
2018-02-13T08:56:08.781Z,0.79
2018-02-13T08:57:17.605Z,0.75
2018-02-13T08:58:26.431Z,0.76
2018-02-13T08:59:35.258Z,0.8
2018-02-13T09:00:44.456Z,0.84
2018-02-13T09:01:53.280Z,0.83
2018-02-13T09:03:02.108Z,0.86
2018-02-13T09:04:10.931Z,0.91
2018-02-13T09:05:19.756Z,0.88
2018-02-13T09:06:28.580Z,0.88
2018-02-13T09:07:37.405Z,0.93
2018-02-13T09:08:46.231Z,0.96
2018-02-13T09:09:55.058Z,0.9
2018-02-13T09:11:03.880Z,0.97
2018-02-13T09:12:12.706Z,0.98
2018-02-13T09:13:21.529Z,0.96
2018-02-13T09:14:30.357Z,1.09
2018-02-13T09:15:39.184Z,1.08
2018-02-13T09:16:48.006Z,1.11
2018-02-13T09:17:56.980Z,1.2
2018-02-13T09:19:05.808Z,1.18
2018-02-13T09:20:14.667Z,1.16
2018-02-13T09:21:23.458Z,1.12
2018-02-13T09:22:32.281Z,1.12
2018-02-13T09:23:41.258Z,1.2
2018-02-13T09:24:50.083Z,1.23
2018-02-13T09:25:58.909Z,1.26
2018-02-13T09:27:08.005Z,1.16
2018-02-13T09:28:16.831Z,1.26
2018-02-13T09:29:26.524Z,1.18
2018-02-13T09:30:35.349Z,1.29
2018-02-13T09:31:44.176Z,1.44
2018-02-13T09:32:53.000Z,1.5
2018-02-13T09:34:01.830Z,1.52
2018-02-13T09:35:11.087Z,1.45
2018-02-13T09:36:19.865Z,1.65
2018-02-13T09:37:28.692Z,1.54
2018-02-13T09:38:37.518Z,1.58
2018-02-13T09:39:46.346Z,1.58
2018-02-13T09:40:55.319Z,1.51
2018-02-13T09:42:04.145Z,1.44
2018-02-13T09:43:12.971Z,1.47
2018-02-13T09:44:21.820Z,1.45
2018-02-13T09:45:30.623Z,1.55
2018-02-13T09:46:39.548Z,1.7
2018-02-13T09:47:48.376Z,1.76
2018-02-13T09:48:57.477Z,1.72
2018-02-13T09:50:06.303Z,1.76
2018-02-13T09:51:15.135Z,1.8
2018-02-13T09:52:24.106Z,1.81
2018-02-13T09:53:33.206Z,1.91
2018-02-13T09:54:42.031Z,1.93
2018-02-13T09:55:50.864Z,1.84
2018-02-13T09:56:59.689Z,1.79
2018-02-13T09:58:08.613Z,2
2018-02-13T09:59:17.442Z,2
2018-02-13T10:00:26.269Z,2.17
2018-02-13T10:01:35.095Z,2.03
2018-02-13T10:02:43.921Z,1.99
2018-02-13T10:03:52.949Z,2.03
2018-02-13T10:05:01.774Z,2
2018-02-13T10:06:10.602Z,2.07
2018-02-13T10:07:19.701Z,2.28
2018-02-13T10:08:28.534Z,2.31
2018-02-13T10:09:37.749Z,2.25
2018-02-13T10:10:46.578Z,2.24
2018-02-13T10:11:55.402Z,2.35
2018-02-13T10:13:04.229Z,2.16
2018-02-13T10:14:13.056Z,2.3
2018-02-13T10:15:21.984Z,2.3
2018-02-13T10:16:30.811Z,2.36
2018-02-13T10:17:39.639Z,2.38
2018-02-13T10:18:48.465Z,2.41
2018-02-13T10:19:57.292Z,2.31
2018-02-13T10:21:06.230Z,2.46
2018-02-13T10:22:15.056Z,2.49
2018-02-13T10:23:23.883Z,2.49
2018-02-13T10:24:32.712Z,2.52
2018-02-13T10:25:41.738Z,2.54
2018-02-13T10:26:50.716Z,2.56
2018-02-13T10:27:59.863Z,2.57
2018-02-13T10:29:08.692Z,2.66
2018-02-13T10:30:17.516Z,2.69
2018-02-13T10:31:26.343Z,2.72
2018-02-13T10:32:35.544Z,2.79
2018-02-13T10:33:44.371Z,2.75
2018-02-13T10:34:53.201Z,2.79
2018-02-13T10:36:02.029Z,2.78
2018-02-13T10:37:10.857Z,2.92
2018-02-13T10:38:19.785Z,2.93
2018-02-13T10:39:28.614Z,2.95
2018-02-13T10:40:37.439Z,2.95
2018-02-13T10:41:46.267Z,3.14
2018-02-13T10:42:55.096Z,3.05
2018-02-13T10:44:03.921Z,3.06
2018-02-13T10:45:12.749Z,3.13
2018-02-13T10:46:21.576Z,2.99
2018-02-13T10:47:30.677Z,3.02
2018-02-13T10:48:39.505Z,3.06
2018-02-13T10:49:48.518Z,3.15
2018-02-13T10:50:57.324Z,3.13
2018-02-13T10:52:06.142Z,3.29
2018-02-13T10:53:15.242Z,3.28
2018-02-13T10:54:24.345Z,3.33
2018-02-13T10:55:33.322Z,3.4
2018-02-13T10:56:42.148Z,3.36
2018-02-13T10:57:50.976Z,3.31
2018-02-13T10:58:59.807Z,3.32
2018-02-13T11:00:08.631Z,3.47
2018-02-13T11:01:17.558Z,3.55
2018-02-13T11:02:26.384Z,3.54
2018-02-13T11:03:35.211Z,3.68
2018-02-13T11:04:44.040Z,3.69
2018-02-13T11:05:52.866Z,3.55
2018-02-13T11:07:01.694Z,3.54
2018-02-13T11:08:10.532Z,3.68
2018-02-13T11:09:19.359Z,3.6
2018-02-13T11:10:28.190Z,3.7
2018-02-13T11:11:37.016Z,3.72
2018-02-13T11:12:46.145Z,3.8
2018-02-13T11:13:55.245Z,3.79
2018-02-13T11:15:04.074Z,3.87
2018-02-13T11:16:13.178Z,3.91
2018-02-13T11:17:22.008Z,3.9
2018-02-13T11:18:30.987Z,3.96
2018-02-13T11:19:39.815Z,4.06
2018-02-13T11:20:48.645Z,4.09
2018-02-13T11:21:57.469Z,4.11
2018-02-13T11:23:06.298Z,4.15
2018-02-13T11:24:15.177Z,4.12
2018-02-13T11:25:24.004Z,4.12
2018-02-13T11:26:32.880Z,4.26
2018-02-13T11:27:41.713Z,4.24
2018-02-13T11:28:50.813Z,4.23
2018-02-13T11:29:59.742Z,4.27
2018-02-13T11:31:08.569Z,4.33
2018-02-13T11:32:17.404Z,4.42
2018-02-13T11:33:26.225Z,4.47
2018-02-13T11:34:35.055Z,4.37
2018-02-13T11:35:43.986Z,4.42
2018-02-13T11:36:52.813Z,4.33
2018-02-13T11:38:01.641Z,4.44
2018-02-13T11:39:10.478Z,4.52
2018-02-13T11:40:19.302Z,4.4
2018-02-13T11:41:28.230Z,4.52
2018-02-13T11:42:37.060Z,4.55
2018-02-13T11:43:45.890Z,4.65
2018-02-13T11:44:54.721Z,4.65
2018-02-13T11:46:03.550Z,4.63
2018-02-13T11:47:12.631Z,4.69
2018-02-13T11:48:21.737Z,4.72
2018-02-13T11:49:30.567Z,4.86
2018-02-13T11:50:39.671Z,4.77
2018-02-13T11:51:48.498Z,4.75
2018-02-13T11:52:57.377Z,4.91
2018-02-13T11:54:06.482Z,4.96
2018-02-13T11:55:15.587Z,4.96
2018-02-13T11:56:24.418Z,4.96
2018-02-13T11:57:33.248Z,4.94
2018-02-13T11:58:42.125Z,4.8
2018-02-13T11:59:50.954Z,4.75
2018-02-13T12:00:59.786Z,5.02
2018-02-13T12:02:08.613Z,5.06
2018-02-13T12:03:17.714Z,5.07
2018-02-13T12:04:27.069Z,5.12
2018-02-13T12:05:35.900Z,5.07
2018-02-13T12:06:44.728Z,4.96
2018-02-13T12:07:53.555Z,5.03
2018-02-13T12:09:02.387Z,5.04
2018-02-13T12:10:11.264Z,5.04
2018-02-13T12:11:20.094Z,5.15
2018-02-13T12:12:28.922Z,5.24
2018-02-13T12:13:37.749Z,5.21
2018-02-13T12:14:46.579Z,5.22
2018-02-13T12:15:55.508Z,5.31
2018-02-13T12:17:04.614Z,5.35
2018-02-13T12:18:13.445Z,5.3
2018-02-13T12:19:22.275Z,5.33
2018-02-13T12:20:31.106Z,5.33
2018-02-13T12:21:39.933Z,5.38
2018-02-13T12:22:49.040Z,5.38
2018-02-13T12:23:58.143Z,5.35
2018-02-13T12:25:06.977Z,5.43
2018-02-13T12:26:15.805Z,5.43
2018-02-13T12:27:24.925Z,5.48
2018-02-13T12:28:33.721Z,5.42
2018-02-13T12:29:42.551Z,5.54
2018-02-13T12:30:51.377Z,5.48
2018-02-13T12:32:00.208Z,5.54
2018-02-13T12:33:09.141Z,5.48
2018-02-13T12:34:18.017Z,5.46
2018-02-13T12:35:26.802Z,5.4
2018-02-13T12:36:35.633Z,5.48
2018-02-13T12:37:44.462Z,5.65
2018-02-13T12:38:53.441Z,5.67
2018-02-13T12:40:02.269Z,5.6
2018-02-13T12:41:11.100Z,5.72
2018-02-13T12:42:19.931Z,5.78
2018-02-13T12:43:29.038Z,5.74
2018-02-13T12:44:38.121Z,5.67
2018-02-13T12:45:46.954Z,5.76
2018-02-13T12:46:55.785Z,5.85
2018-02-13T12:48:04.613Z,5.89
2018-02-13T12:49:13.448Z,5.76
2018-02-13T12:50:22.714Z,5.79
2018-02-13T12:51:31.543Z,5.83
2018-02-13T12:52:40.371Z,5.83
2018-02-13T12:53:49.201Z,5.85
2018-02-13T12:54:58.306Z,5.89
2018-02-13T12:56:07.287Z,5.86
2018-02-13T12:57:16.117Z,5.9
2018-02-13T12:58:24.947Z,5.9
2018-02-13T12:59:33.778Z,5.85
2018-02-13T13:00:42.885Z,5.83
2018-02-13T13:01:51.988Z,5.82
2018-02-13T13:03:00.821Z,5.97
2018-02-13T13:04:09.653Z,6.09
2018-02-13T13:05:18.482Z,6.01
2018-02-13T13:06:27.591Z,6.04
2018-02-13T13:07:36.749Z,5.94
2018-02-13T13:08:45.580Z,5.97
2018-02-13T13:09:54.413Z,5.97
2018-02-13T13:11:03.245Z,6.01
2018-02-13T13:12:12.077Z,6.09
2018-02-13T13:13:20.958Z,6.28
2018-02-13T13:14:29.789Z,6.06
2018-02-13T13:15:38.622Z,6.14
2018-02-13T13:16:47.452Z,6.18
2018-02-13T13:17:56.557Z,6.15
2018-02-13T13:19:05.441Z,6.12
2018-02-13T13:20:14.324Z,6.04
2018-02-13T13:21:23.157Z,6.12
2018-02-13T13:22:31.990Z,6.09
2018-02-13T13:23:40.823Z,6.21
2018-02-13T13:24:49.657Z,6.3
2018-02-13T13:25:58.488Z,6.3
2018-02-13T13:27:07.322Z,6.31
2018-02-13T13:28:16.154Z,6.36
2018-02-13T13:29:24.987Z,6.28
2018-02-13T13:30:33.870Z,6.38
2018-02-13T13:31:42.703Z,6.33
2018-02-13T13:32:51.533Z,6.38
2018-02-13T13:34:00.366Z,6.46
2018-02-13T13:35:09.200Z,6.52
2018-02-13T13:36:18.408Z,6.64
2018-02-13T13:37:27.241Z,6.62
2018-02-13T13:38:36.072Z,6.74
2018-02-13T13:39:44.904Z,6.62
2018-02-13T13:40:53.735Z,6.67
2018-02-13T13:42:02.567Z,6.61
2018-02-13T13:43:11.400Z,6.48
2018-02-13T13:44:20.235Z,6.48
2018-02-13T13:45:29.068Z,6.51
2018-02-13T13:46:37.908Z,6.52
2018-02-13T13:47:46.890Z,6.43
2018-02-13T13:48:55.723Z,6.48
2018-02-13T13:50:04.560Z,6.61
2018-02-13T13:51:13.392Z,6.64
2018-02-13T13:52:22.224Z,6.59
2018-02-13T13:53:31.105Z,6.48
2018-02-13T13:54:39.940Z,6.52
2018-02-13T13:55:48.773Z,6.49
2018-02-13T13:56:57.607Z,6.62
2018-02-13T13:58:06.444Z,6.7
2018-02-13T13:59:15.310Z,6.67
2018-02-13T14:00:24.122Z,6.7
2018-02-13T14:01:32.957Z,6.79
2018-02-13T14:02:41.790Z,6.88
2018-02-13T14:03:50.623Z,6.89
2018-02-13T14:04:59.609Z,6.89
2018-02-13T14:06:08.492Z,6.95
2018-02-13T14:07:17.334Z,6.98
2018-02-13T14:08:26.161Z,7.1
2018-02-13T14:09:34.999Z,7.17
2018-02-13T14:10:43.930Z,7.1
2018-02-13T14:11:53.038Z,7.05
2018-02-13T14:13:01.872Z,7.12
2018-02-13T14:14:10.703Z,7.24
2018-02-13T14:15:19.538Z,7.2
2018-02-13T14:16:28.420Z,7.21
2018-02-13T14:17:37.528Z,7.1
2018-02-13T14:18:46.360Z,7.31
2018-02-13T14:19:55.193Z,7.48
2018-02-13T14:21:04.027Z,7.55
2018-02-13T14:22:12.962Z,7.6
2018-02-13T14:23:21.796Z,7.64
2018-02-13T14:24:30.904Z,7.58
2018-02-13T14:25:40.011Z,7.58
2018-02-13T14:26:48.847Z,7.82
2018-02-13T14:27:57.830Z,7.85
2018-02-13T14:29:06.665Z,7.83
2018-02-13T14:30:15.500Z,7.85
2018-02-13T14:31:24.338Z,7.89
2018-02-13T14:32:33.172Z,7.86
2018-02-13T14:33:42.058Z,7.74
2018-02-13T14:34:50.899Z,7.68
2018-02-13T14:35:59.729Z,7.61
2018-02-13T14:37:08.561Z,7.85
2018-02-13T14:38:17.396Z,7.98
2018-02-13T14:39:26.808Z,8.18
2018-02-13T14:40:35.647Z,8.28
2018-02-13T14:41:44.486Z,8.36
2018-02-13T14:42:53.321Z,8.4
2018-02-13T14:44:02.157Z,8.23
2018-02-13T14:45:11.092Z,8.12
2018-02-13T14:46:19.935Z,7.9
2018-02-13T14:47:28.788Z,7.82
2018-02-13T14:48:37.888Z,7.86
2018-02-13T14:49:46.725Z,7.95
2018-02-13T14:50:55.712Z,7.95
2018-02-13T14:52:04.550Z,8.07
2018-02-13T14:53:13.661Z,8.22
2018-02-13T14:54:22.496Z,8.23
2018-02-13T14:55:31.617Z,8.3
2018-02-13T14:56:40.551Z,8.12
2018-02-13T14:57:49.660Z,8.15
2018-02-13T14:58:58.502Z,8.19
2018-02-13T15:00:07.622Z,7.98
2018-02-13T15:01:16.458Z,7.93
2018-02-13T15:02:25.293Z,8.11
2018-02-13T15:03:34.127Z,7.98
2018-02-13T15:04:42.963Z,7.95
2018-02-13T15:05:51.800Z,7.95